Time;durP1;ratioP1;P1;durP2;ratioP2;P2;SDS_P1;SDS_P2;PMS_P1;PMS_P2;Temp;Humidity;BMP_temperature;BMP_pressure;BME280_temperature;BME280_humidity;BME280_pressure;Samples;Min_cycle;Max_cycle;Signal;HPM_P1;HPM_P2
2022/12/06 00:01:16;;;;;;;15.45;5.82;;;5.50;99.90;;;;;;5111998;27;20042;-47
2022/12/06 00:03:43;;;;;;;13.80;6.18;;;5.50;99.90;;;;;;5129748;27;20043;-50
2022/12/06 00:06:19;;;;;;;17.73;6.00;;;5.20;99.90;;;;;;5129314;27;20073;-46
2022/12/06 00:08:46;;;;;;;13.85;5.63;;;4.90;99.90;;;;;;5130376;27;20047;-47
2022/12/06 00:11:14;;;;;;;13.50;5.25;;;4.70;99.90;;;;;;5130349;27;20386;-45
2022/12/06 00:13:41;;;;;;;12.07;5.78;;;4.80;99.90;;;;;;5129332;27;20042;-45
2022/12/06 00:16:09;;;;;;;14.07;5.32;;;5.30;99.90;;;;;;5128756;27;20039;-44
2022/12/06 00:18:37;;;;;;;14.60;5.40;;;5.20;99.90;;;;;;5130526;27;20034;-45
2022/12/06 00:21:31;;;;;;;13.55;5.82;;;4.90;99.90;;;;;;5129230;28;20121;-44
2022/12/06 00:24:01;;;;;;;16.48;5.68;;;4.80;99.90;;;;;;5098191;28;20051;-46
2022/12/06 00:26:28;;;;;;;13.65;5.68;;;5.10;99.90;;;;;;5110611;28;20035;-43
2022/12/06 00:28:56;;;;;;;14.35;5.85;;;4.80;99.90;;;;;;5129638;28;20040;-43
2022/12/06 00:31:25;;;;;;;13.15;5.22;;;4.90;99.90;;;;;;5128834;28;20138;-44
2022/12/06 00:33:52;;;;;;;17.23;6.07;;;5.50;99.90;;;;;;5111834;28;20114;-46
2022/12/06 00:36:21;;;;;;;16.17;5.60;;;5.60;99.90;;;;;;5129928;28;20035;-46
2022/12/06 00:38:47;;;;;;;14.70;5.95;;;4.70;99.90;;;;;;5130338;28;20050;-44
2022/12/06 00:41:17;;;;;;;14.07;5.40;;;4.90;99.90;;;;;;5130260;28;20035;-49
2022/12/06 00:43:44;;;;;;;16.73;6.03;;;4.80;99.90;;;;;;5130044;28;20050;-44
2022/12/06 00:46:25;;;;;;;12.60;5.97;;;5.50;99.90;;;;;;5111332;28;20038;-44
2022/12/06 00:48:52;;;;;;;10.75;5.57;;;4.80;99.90;;;;;;5111416;28;20032;-44
2022/12/06 00:51:20;;;;;;;16.50;5.78;;;4.70;99.90;;;;;;5130285;27;20390;-45
2022/12/06 00:53:46;;;;;;;15.02;5.57;;;4.90;99.90;;;;;;5133172;27;20053;-47
2022/12/06 00:56:13;;;;;;;14.68;5.70;;;5.10;99.90;;;;;;5132933;27;20213;-46
2022/12/06 00:58:39;;;;;;;14.82;5.57;;;4.60;99.90;;;;;;5115233;27;20032;-48
2022/12/06 01:01:10;;;;;;;13.48;5.90;;;5.40;99.90;;;;;;5133563;27;20035;-45
2022/12/06 01:03:36;;;;;;;17.38;5.90;;;5.10;99.90;;;;;;5133807;27;20043;-46
2022/12/06 01:06:05;;;;;;;17.48;5.78;;;5.00;99.90;;;;;;5133433;27;20050;-44
2022/12/06 01:08:31;;;;;;;14.57;5.90;;;4.60;99.90;;;;;;5134243;27;20038;-45
2022/12/06 01:10:57;;;;;;;17.42;6.20;;;5.20;99.90;;;;;;5133900;27;20039;-44
2022/12/06 01:13:23;;;;;;;18.45;6.00;;;5.30;99.90;;;;;;5133763;27;20027;-49
2022/12/06 01:15:49;;;;;;;18.15;6.15;;;5.10;99.90;;;;;;5132532;27;21135;-48
2022/12/06 01:18:15;;;;;;;14.85;5.70;;;5.40;99.90;;;;;;5114607;27;20042;-46
2022/12/06 01:20:41;;;;;;;14.60;6.15;;;5.00;99.90;;;;;;5133667;27;20470;-47
2022/12/06 01:23:06;;;;;;;18.98;6.80;;;5.40;99.90;;;;;;5131990;27;20035;-44
2022/12/06 01:25:32;;;;;;;14.27;6.43;;;4.80;99.90;;;;;;5133684;27;20039;-46
2022/12/06 01:27:58;;;;;;;16.95;6.07;;;4.80;99.90;;;;;;5133015;27;20067;-46
2022/12/06 01:30:24;;;;;;;13.98;5.93;;;4.80;99.90;;;;;;5133040;27;20077;-46
2022/12/06 01:32:50;;;;;;;14.73;6.40;;;4.80;99.90;;;;;;5133403;27;20485;-45
2022/12/06 01:35:16;;;;;;;12.18;5.60;;;5.30;99.90;;;;;;5133056;27;20192;-45
2022/12/06 01:37:41;;;;;;;16.20;5.50;;;4.60;99.90;;;;;;5114810;27;20471;-44
2022/12/06 01:40:08;;;;;;;14.70;5.78;;;4.50;99.90;;;;;;5114709;27;20470;-48
2022/12/06 01:42:34;;;;;;;12.10;5.50;;;4.70;99.90;;;;;;5132632;27;20084;-47
2022/12/06 01:45:00;;;;;;;16.05;5.68;;;5.60;99.90;;;;;;5132168;27;20047;-47
2022/12/06 01:47:33;;;;;;;13.27;5.78;;;5.00;99.90;;;;;;5133117;27;20477;-45
2022/12/06 01:50:20;;;;;;;12.27;5.97;;;4.60;99.90;;;;;;5133064;27;20043;-49
2022/12/06 01:52:54;;;;;;;12.77;4.97;;;5.10;99.90;;;;;;5132646;27;20043;-44
2022/12/06 01:55:23;;;;;;;15.90;5.35;;;4.80;99.90;;;;;;5131136;27;20043;-46
2022/12/06 01:57:52;;;;;;;12.25;5.05;;;4.90;99.90;;;;;;5132574;27;20039;-45
2022/12/06 02:00:18;;;;;;;14.90;5.47;;;5.30;99.90;;;;;;5113671;27;20039;-45
2022/12/06 02:02:44;;;;;;;15.68;5.13;;;5.20;99.90;;;;;;5132521;27;20432;-47
2022/12/06 02:05:11;;;;;;;16.17;5.55;;;4.40;99.90;;;;;;5132465;27;20042;-47
2022/12/06 02:07:38;;;;;;;11.82;5.20;;;4.90;99.90;;;;;;5132693;27;20031;-45
2022/12/06 02:10:04;;;;;;;13.10;5.10;;;5.20;99.90;;;;;;5113837;27;20147;-46
2022/12/06 02:12:30;;;;;;;13.27;5.28;;;5.00;99.90;;;;;;5132279;27;20038;-45
2022/12/06 02:14:56;;;;;;;13.50;4.90;;;5.00;99.90;;;;;;5132581;27;20046;-46
2022/12/06 02:17:43;;;;;;;14.68;5.18;;;5.00;99.90;;;;;;5132833;27;20063;-46
2022/12/06 02:20:17;;;;;;;10.80;4.70;;;4.80;99.90;;;;;;5131927;27;20054;-47
2022/12/06 02:22:49;;;;;;;;;;;5.10;99.90;;;;;;5132716;27;20511;-47
2022/12/06 02:25:36;;;;;;;10.48;4.53;;;4.90;99.90;;;;;;5113691;27;19916;-46
2022/12/06 02:28:04;;;;;;;13.55;4.93;;;4.50;99.90;;;;;;5131931;27;20031;-48
2022/12/06 02:30:48;;;;;;;10.38;4.30;;;4.90;99.90;;;;;;5131974;27;20470;-47
2022/12/06 02:33:31;;;;;;;10.23;4.97;;;4.60;99.90;;;;;;5132272;27;20043;-48
2022/12/06 02:36:07;;;;;;;11.80;4.47;;;4.30;99.90;;;;;;5132183;27;20035;-47
2022/12/06 02:39:04;;;;;;;8.65;4.90;;;4.30;99.90;;;;;;5132243;27;20054;-48
2022/12/06 02:41:36;;;;;;;12.15;4.72;;;5.20;99.90;;;;;;5130310;27;20126;-46
2022/12/06 02:44:06;;;;;;;13.50;4.70;;;4.90;99.90;;;;;;5131044;27;20132;-48
2022/12/06 02:46:36;;;;;;;9.50;4.55;;;5.00;99.90;;;;;;5132055;27;20095;-49
2022/12/06 02:49:05;;;;;;;12.43;4.55;;;5.10;99.90;;;;;;5131584;27;20038;-47
2022/12/06 02:51:33;;;;;;;12.05;4.53;;;4.40;99.90;;;;;;5130623;27;20046;-45
2022/12/06 02:54:01;;;;;;;9.32;4.03;;;4.30;99.90;;;;;;5131651;27;20402;-46
2022/12/06 02:56:28;;;;;;;10.00;4.63;;;4.60;99.90;;;;;;5132051;27;20035;-48
2022/12/06 02:58:55;;;;;;;11.85;4.15;;;5.00;99.90;;;;;;5131371;27;20038;-47
2022/12/06 03:01:27;;;;;;;14.27;4.25;;;4.30;99.90;;;;;;5131732;27;20035;-47
2022/12/06 03:04:12;;;;;;;8.60;3.63;;;4.30;99.90;;;;;;5131058;27;20039;-44
2022/12/06 03:06:58;;;;;;;10.85;3.88;;;4.30;99.90;;;;;;5131156;27;20367;-48
2022/12/06 03:09:46;;;;;;;9.18;3.42;;;4.30;99.90;;;;;;5131409;27;20118;-45
2022/12/06 03:12:33;;;;;;;14.32;3.35;;;4.30;99.90;;;;;;5131613;27;20439;-45
2022/12/06 03:15:43;;;;;;;10.35;3.30;;;4.40;99.90;;;;;;5130192;27;20066;-48
2022/12/06 03:18:33;;;;;;;8.70;3.40;;;4.40;99.90;;;;;;5066320;28;20043;-46
2022/12/06 03:21:04;;;;;;;11.23;3.33;;;4.30;99.90;;;;;;5112144;27;20035;-45
2022/12/06 03:23:39;;;;;;;11.77;3.35;;;4.20;99.90;;;;;;5130170;27;20031;-47
2022/12/06 03:26:06;;;;;;;11.05;3.85;;;4.80;99.90;;;;;;5131248;27;20038;-44
2022/12/06 03:28:35;;;;;;;10.20;3.25;;;4.90;99.90;;;;;;5130522;27;20042;-45
2022/12/06 03:31:04;;;;;;;8.98;3.30;;;4.90;99.90;;;;;;5089567;27;20039;-44
2022/12/06 03:33:34;;;;;;;8.45;3.40;;;4.80;99.90;;;;;;5130642;27;21084;-44
2022/12/06 03:36:01;;;;;;;6.80;3.30;;;4.70;99.90;;;;;;5131245;27;20509;-45
2022/12/06 03:38:55;;;;;;;9.25;3.50;;;5.10;99.90;;;;;;5131323;27;20061;-48
2022/12/06 03:41:24;;;;;;;8.02;3.10;;;4.10;99.90;;;;;;5117853;27;20039;-46
2022/12/06 03:43:50;;;;;;;7.78;3.53;;;4.40;99.90;;;;;;5129645;27;20062;-48
2022/12/06 03:46:25;;;;;;;10.02;3.25;;;5.00;99.90;;;;;;5131182;27;20039;-48
2022/12/06 03:49:09;;;;;;;9.45;3.38;;;4.40;99.90;;;;;;5130611;27;20027;-48
2022/12/06 03:51:37;;;;;;;7.60;3.00;;;4.80;99.90;;;;;;5129763;27;20359;-48
2022/12/06 03:54:05;;;;;;;7.05;3.22;;;4.50;99.90;;;;;;5131461;27;20479;-46
2022/12/06 03:56:35;;;;;;;9.13;3.13;;;4.40;99.90;;;;;;5130710;27;20033;-45
2022/12/06 03:59:05;;;;;;;9.68;3.67;;;4.90;99.90;;;;;;5129437;27;20089;-45
2022/12/06 04:01:31;;;;;;;9.68;3.35;;;4.20;99.90;;;;;;5130786;27;20050;-46
2022/12/06 04:03:57;;;;;;;8.15;3.63;;;4.50;99.90;;;;;;5129608;27;20450;-46
2022/12/06 04:06:23;;;;;;;8.82;3.20;;;4.60;99.90;;;;;;5127472;27;20077;-47
2022/12/06 04:08:49;;;;;;;8.73;3.28;;;4.50;99.90;;;;;;5130943;27;20118;-47
2022/12/06 04:11:14;;;;;;;8.70;2.90;;;4.00;99.90;;;;;;5130742;27;20129;-46
2022/12/06 04:13:40;;;;;;;11.55;3.75;;;4.10;99.90;;;;;;5112277;27;20401;-46
2022/12/06 04:18:51;;;;;;;10.07;3.33;;;4.20;99.90;;;;;;5130937;27;20043;-45
2022/12/06 04:23:58;;;;;;;7.78;3.53;;;4.80;99.90;;;;;;5129009;28;20074;-46
2022/12/06 04:26:25;;;;;;;7.70;3.38;;;4.10;99.90;;;;;;5132541;27;20102;-46
2022/12/06 04:39:51;;;;;;;9.48;3.13;;;4.70;99.90;;;;;;5133170;27;20036;-45
2022/12/06 04:45:04;;;;;;;10.15;3.30;;;4.00;99.90;;;;;;5135155;27;20043;-46
2022/12/06 04:47:30;;;;;;;9.77;3.33;;;4.70;99.90;;;;;;5134477;27;20083;-46
2022/12/06 04:49:55;;;;;;;7.60;3.03;;;4.60;99.90;;;;;;5132852;27;20283;-48
2022/12/06 04:52:21;;;;;;;8.57;3.10;;;4.60;99.90;;;;;;5134215;27;20035;-47
2022/12/06 04:54:47;;;;;;;7.88;3.42;;;3.80;99.90;;;;;;5133592;27;20039;-48
2022/12/06 04:57:15;;;;;;;6.80;3.05;;;4.00;99.90;;;;;;5133863;27;20135;-44
2022/12/06 04:59:43;;;;;;;7.13;3.00;;;3.90;99.90;;;;;;5133779;27;20039;-48
2022/12/06 05:02:13;;;;;;;8.98;3.55;;;4.40;99.90;;;;;;5133636;27;20031;-45
2022/12/06 05:04:39;;;;;;;9.70;3.55;;;3.70;99.90;;;;;;5133742;27;20121;-47
2022/12/06 05:07:05;;;;;;;9.68;3.47;;;4.30;99.90;;;;;;5133381;27;20118;-44
2022/12/06 05:09:31;;;;;;;10.20;3.47;;;4.00;99.90;;;;;;5133975;27;20062;-45
2022/12/06 05:11:56;;;;;;;7.63;3.60;;;3.50;99.90;;;;;;5133921;27;20118;-46
2022/12/06 05:14:22;;;;;;;9.50;3.28;;;4.40;99.90;;;;;;5113919;27;20538;-45
2022/12/06 05:16:48;;;;;;;6.97;3.35;;;3.80;99.90;;;;;;5133413;27;20058;-48
2022/12/06 05:19:14;;;;;;;7.50;2.95;;;3.50;99.90;;;;;;5133764;27;20031;-47
2022/12/06 05:21:40;;;;;;;7.53;3.10;;;3.50;99.90;;;;;;5133950;27;20115;-46
2022/12/06 05:24:06;;;;;;;11.52;3.58;;;4.30;99.90;;;;;;5131991;27;20047;-46
2022/12/06 05:26:32;;;;;;;9.90;3.30;;;3.60;99.90;;;;;;5133663;27;20039;-46
2022/12/06 05:28:58;;;;;;;9.35;3.60;;;3.30;99.90;;;;;;5133159;27;20050;-47
2022/12/06 05:31:24;;;;;;;8.93;3.40;;;4.00;99.90;;;;;;5133602;27;20466;-50
2022/12/06 05:33:51;;;;;;;10.15;3.53;;;3.40;99.90;;;;;;5132839;27;20042;-46
2022/12/06 05:36:20;;;;;;;9.32;3.42;;;3.60;99.90;;;;;;5133210;27;20023;-48
2022/12/06 05:38:47;;;;;;;9.68;3.67;;;4.00;99.90;;;;;;5132705;27;20043;-49
2022/12/06 05:41:13;;;;;;;10.23;4.05;;;3.80;99.90;;;;;;5133317;27;20039;-49
2022/12/06 05:43:39;;;;;;;11.15;3.55;;;4.20;99.90;;;;;;5132914;27;20047;-48
2022/12/06 05:46:05;;;;;;;9.57;4.20;;;3.50;99.90;;;;;;5132832;27;20054;-47
2022/12/06 05:48:31;;;;;;;13.77;3.90;;;4.10;99.90;;;;;;5132975;27;20023;-48
2022/12/06 05:50:57;;;;;;;7.30;3.50;;;3.70;99.90;;;;;;5133166;27;20493;-45
2022/12/06 05:53:23;;;;;;;8.52;3.40;;;4.00;99.90;;;;;;5133165;27;20031;-45
2022/12/06 05:55:49;;;;;;;8.80;3.50;;;3.50;99.90;;;;;;5114611;27;20173;-46
2022/12/06 05:58:16;;;;;;;9.20;3.67;;;3.60;99.90;;;;;;5133199;27;20134;-45
2022/12/06 06:00:46;;;;;;;11.38;3.90;;;3.90;99.90;;;;;;5132580;27;20363;-46
2022/12/06 06:03:11;;;;;;;10.40;3.60;;;3.50;99.90;;;;;;5132637;27;20043;-47
2022/12/06 06:05:43;;;;;;;8.85;3.63;;;3.80;99.90;;;;;;5132751;27;20500;-45
2022/12/06 06:08:09;;;;;;;10.55;4.22;;;3.50;99.90;;;;;;5132770;27;20042;-46
2022/12/06 06:10:34;;;;;;;10.25;3.90;;;3.90;99.90;;;;;;5132493;27;20402;-46
2022/12/06 06:13:00;;;;;;;8.20;3.50;;;4.40;99.90;;;;;;5132688;27;20449;-45
2022/12/06 06:15:26;;;;;;;10.05;3.50;;;4.30;99.90;;;;;;5132641;27;20039;-43
2022/12/06 06:17:51;;;;;;;8.27;4.13;;;4.10;99.90;;;;;;5113735;27;20046;-45
2022/12/06 06:20:17;;;;;;;8.93;3.75;;;3.70;99.90;;;;;;5132314;27;20035;-45
2022/12/06 06:22:43;;;;;;;12.43;3.83;;;3.90;99.90;;;;;;5131901;27;20035;-45
2022/12/06 06:25:08;;;;;;;10.20;3.72;;;3.60;99.90;;;;;;5114030;27;20039;-43
2022/12/06 06:27:37;;;;;;;7.63;3.40;;;3.90;99.90;;;;;;5132412;27;20443;-50
2022/12/06 06:30:08;;;;;;;11.90;3.97;;;4.00;99.90;;;;;;5113524;27;20051;-47
2022/12/06 06:32:35;;;;;;;8.90;3.33;;;3.60;99.90;;;;;;5131637;27;20045;-45
2022/12/06 06:35:01;;;;;;;7.43;3.53;;;4.10;99.90;;;;;;5131890;27;20122;-47
2022/12/06 06:37:27;;;;;;;7.55;3.70;;;4.30;99.90;;;;;;5130836;27;20035;-45
2022/12/06 06:39:52;;;;;;;9.35;3.78;;;4.20;99.90;;;;;;5130501;27;20110;-46
2022/12/06 06:42:18;;;;;;;7.65;3.40;;;4.30;99.90;;;;;;5126092;27;20105;-47
2022/12/06 06:44:44;;;;;;;8.10;3.70;;;3.70;99.90;;;;;;5126829;27;20437;-48
2022/12/06 06:47:10;;;;;;;7.95;3.90;;;4.40;99.90;;;;;;5128980;27;20035;-46
2022/12/06 06:49:35;;;;;;;8.52;3.80;;;3.80;99.90;;;;;;5124553;27;20039;-48
2022/12/06 06:52:01;;;;;;;7.30;3.03;;;3.60;99.90;;;;;;5128863;27;20039;-48
2022/12/06 06:54:27;;;;;;;6.72;3.10;;;4.10;99.90;;;;;;5126489;27;20031;-47
2022/12/06 06:56:55;;;;;;;7.00;3.10;;;4.20;99.90;;;;;;5123996;27;20360;-50
2022/12/06 06:59:21;;;;;;;5.80;2.75;;;3.50;99.90;;;;;;5128153;27;20118;-46
2022/12/06 07:01:47;;;;;;;8.65;3.42;;;3.70;99.90;;;;;;5126267;27;20042;-48
2022/12/06 07:04:12;;;;;;;5.40;2.80;;;4.10;99.90;;;;;;5125890;27;20034;-46
2022/12/06 07:06:38;;;;;;;9.02;3.28;;;4.00;99.90;;;;;;5109554;27;20035;-46
2022/12/06 07:09:04;;;;;;;7.60;3.30;;;4.00;99.90;;;;;;5124026;27;20054;-48
2022/12/06 07:11:29;;;;;;;7.10;2.97;;;3.30;99.90;;;;;;5128126;27;20053;-47
2022/12/06 07:13:55;;;;;;;6.03;3.10;;;3.10;99.90;;;;;;5128130;27;20039;-44
2022/12/06 07:16:20;;;;;;;9.43;3.30;;;3.70;99.90;;;;;;5122609;27;20114;-44
2022/12/06 07:18:46;;;;;;;7.60;2.78;;;3.30;99.90;;;;;;5127798;27;20035;-44
2022/12/06 07:21:14;;;;;;;7.20;3.10;;;3.80;99.90;;;;;;5126064;27;20023;-46
2022/12/06 07:23:40;;;;;;;7.38;3.33;;;3.70;99.90;;;;;;5127232;27;20545;-43
2022/12/06 07:26:09;;;;;;;6.78;3.10;;;3.20;99.90;;;;;;5129658;27;20435;-46
2022/12/06 07:28:37;;;;;;;6.53;3.35;;;3.00;99.90;;;;;;5121894;27;20071;-46
2022/12/06 07:31:23;;;;;;;10.15;3.38;;;3.30;99.90;;;;;;5122392;27;20023;-48
2022/12/06 07:33:57;;;;;;;6.22;2.97;;;3.40;99.90;;;;;;5122290;27;20121;-44
2022/12/06 07:36:23;;;;;;;9.32;3.35;;;3.30;99.90;;;;;;5126311;27;20031;-45
2022/12/06 07:38:51;;;;;;;6.50;3.13;;;3.40;99.90;;;;;;5121450;27;20401;-47
2022/12/06 07:47:00;;;;;;;6.30;3.22;;;3.30;99.90;;;;;;5119305;27;20432;-48
2022/12/06 07:49:25;;;;;;;8.15;2.80;;;3.10;99.90;;;;;;5117416;27;20103;-44
2022/12/06 07:51:53;;;;;;;8.23;3.40;;;3.20;99.90;;;;;;5121985;27;20049;-47
2022/12/06 07:54:19;;;;;;;6.03;2.70;;;3.00;99.90;;;;;;5118486;27;21402;-48
2022/12/06 07:56:45;;;;;;;7.25;3.40;;;2.60;99.90;;;;;;5120938;27;20032;-44
2022/12/06 07:59:10;;;;;;;7.70;3.78;;;2.90;99.90;;;;;;5120962;27;20039;-46
2022/12/06 08:01:36;;;;;;;9.60;3.33;;;3.00;99.90;;;;;;5117580;27;20046;-45
2022/12/06 08:04:03;;;;;;;10.57;3.55;;;2.70;99.90;;;;;;5119531;27;20487;-46
2022/12/06 08:06:30;;;;;;;8.15;3.38;;;3.00;99.90;;;;;;5117860;27;20081;-49
2022/12/06 08:08:55;;;;;;;7.97;2.75;;;2.90;99.90;;;;;;5100280;27;20047;-45
2022/12/06 08:11:21;;;;;;;6.97;2.83;;;2.20;99.90;;;;;;5120138;27;20038;-44
2022/12/06 08:13:47;;;;;;;8.63;3.38;;;2.20;99.90;;;;;;5101031;27;20413;-46
2022/12/06 08:16:13;;;;;;;7.97;3.53;;;2.20;99.90;;;;;;5118798;27;20031;-50
2022/12/06 08:18:40;;;;;;;10.20;3.00;;;2.20;99.90;;;;;;5119673;27;20046;-47
2022/12/06 08:21:06;;;;;;;9.38;3.15;;;2.30;99.90;;;;;;5120672;27;20035;-45
2022/12/06 08:23:32;;;;;;;6.30;2.72;;;2.90;99.90;;;;;;5120009;27;20079;-48
2022/12/06 08:26:04;;;;;;;6.43;2.80;;;2.90;99.90;;;;;;5100385;28;20035;-46
2022/12/06 08:28:32;;;;;;;6.50;2.70;;;2.30;99.90;;;;;;5118100;28;20559;-46
2022/12/06 08:30:57;;;;;;;7.15;2.30;;;2.20;99.90;;;;;;5118322;28;20059;-47
2022/12/06 08:33:23;;;;;;;6.20;2.38;;;2.20;99.90;;;;;;5119498;28;20081;-51
2022/12/06 08:35:50;;;;;;;6.85;2.28;;;2.90;99.90;;;;;;5118499;28;20399;-49
2022/12/06 08:38:17;;;;;;;7.35;2.75;;;3.10;99.90;;;;;;5115904;28;20028;-47
2022/12/06 08:40:43;;;;;;;5.55;1.90;;;2.80;99.90;;;;;;5118167;28;20027;-48
2022/12/06 08:43:09;;;;;;;5.45;2.55;;;2.40;99.90;;;;;;5118852;28;20051;-46
2022/12/06 08:45:35;;;;;;;8.50;3.03;;;2.80;99.90;;;;;;5100622;28;20482;-50
2022/12/06 08:48:01;;;;;;;6.93;2.55;;;2.70;99.90;;;;;;5117895;28;20035;-47
2022/12/06 08:50:27;;;;;;;8.27;2.85;;;2.20;99.90;;;;;;5119940;28;20035;-47
2022/12/06 08:52:53;;;;;;;7.82;3.05;;;3.40;99.90;;;;;;5119973;28;20466;-46
2022/12/06 08:55:18;;;;;;;9.13;3.03;;;2.80;99.90;;;;;;5084154;28;20047;-46
2022/12/06 08:57:44;;;;;;;9.00;3.10;;;3.60;99.90;;;;;;5120472;28;20039;-48
2022/12/06 09:00:10;;;;;;;7.70;2.90;;;3.60;99.90;;;;;;5102524;28;20482;-49
2022/12/06 09:02:40;;;;;;;8.75;3.05;;;3.70;99.90;;;;;;5120388;28;20031;-46
2022/12/06 09:05:07;;;;;;;8.80;3.42;;;3.30;99.90;;;;;;5120708;28;20066;-47
2022/12/06 09:07:32;;;;;;;11.15;3.45;;;3.50;99.90;;;;;;5119593;28;20039;-45
2022/12/06 09:09:58;;;;;;;7.22;3.05;;;3.60;99.90;;;;;;5101763;28;20100;-45
2022/12/06 09:12:24;;;;;;;6.68;3.10;;;4.00;99.90;;;;;;5120598;27;20063;-45
2022/12/06 09:14:49;;;;;;;8.98;3.33;;;3.40;99.90;;;;;;5106562;27;21042;-45
2022/12/06 09:17:16;;;;;;;7.88;3.72;;;4.20;99.90;;;;;;5123583;27;20031;-45
2022/12/06 09:19:41;;;;;;;11.98;4.22;;;3.50;99.90;;;;;;5124812;27;20364;-46
2022/12/06 09:22:07;;;;;;;9.95;4.00;;;3.70;99.90;;;;;;5124224;27;20046;-46
2022/12/06 09:24:32;;;;;;;8.75;4.70;;;4.00;99.90;;;;;;5105119;27;20028;-45
2022/12/06 09:26:58;;;;;;;9.27;4.70;;;4.40;99.90;;;;;;5124342;27;20043;-46
2022/12/06 09:29:24;;;;;;;10.57;4.70;;;4.40;99.90;;;;;;5122554;27;20043;-46
2022/12/06 09:31:50;;;;;;;10.25;5.05;;;4.70;99.90;;;;;;5122892;27;20091;-47
2022/12/06 09:34:16;;;;;;;14.25;5.25;;;5.10;99.90;;;;;;5121275;27;20081;-48
2022/12/06 09:36:56;;;;;;;13.05;5.40;;;4.70;99.90;;;;;;5100643;27;20035;-47
2022/12/06 09:39:30;;;;;;;9.35;4.00;;;4.30;99.90;;;;;;5122072;27;20039;-46
2022/12/06 09:42:08;;;;;;;9.25;3.92;;;4.80;99.90;;;;;;5120456;27;20067;-48
2022/12/06 09:45:01;;;;;;;8.77;3.53;;;4.90;99.90;;;;;;5120622;27;20140;-46
2022/12/06 09:47:29;;;;;;;10.23;2.92;;;4.60;99.90;;;;;;5120909;27;20035;-48
2022/12/06 09:49:58;;;;;;;9.38;2.75;;;4.50;99.90;;;;;;5103585;27;20039;-45
2022/12/06 09:52:48;;;;;;;7.40;2.60;;;4.70;99.90;;;;;;5077217;27;20394;-46
2022/12/06 09:55:38;;;;;;;6.53;2.53;;;4.80;99.90;;;;;;5113709;27;20384;-49
2022/12/06 09:58:44;;;;;;;6.10;2.40;;;4.80;99.90;;;;;;5115804;27;20118;-48
2022/12/06 10:01:42;;;;;;;6.47;2.28;;;4.90;99.90;;;;;;5024864;27;20057;-51
2022/12/06 10:04:36;;;;;;;7.70;2.30;;;4.90;99.90;;;;;;5123138;27;20043;-48
2022/12/06 10:07:11;;;;;;;6.77;2.30;;;4.50;99.90;;;;;;5121387;27;20753;-48
2022/12/06 10:10:11;;;;;;;7.00;2.38;;;4.70;99.90;;;;;;5123501;27;20440;-51
2022/12/06 10:12:49;;;;;;;8.70;2.15;;;4.90;99.90;;;;;;5123677;27;20061;-48
2022/12/06 10:15:21;;;;;;;5.68;2.08;;;4.70;99.90;;;;;;5123465;27;20035;-51
2022/12/06 10:18:19;;;;;;;5.70;2.50;;;4.70;99.90;;;;;;5123662;27;20493;-48
2022/12/06 10:21:01;;;;;;;6.20;2.65;;;5.10;99.90;;;;;;5126111;27;20195;-46
2022/12/06 10:23:39;;;;;;;6.55;2.15;;;5.10;99.90;;;;;;5125755;27;20059;-46
2022/12/06 10:26:15;;;;;;;8.15;2.20;;;5.00;99.90;;;;;;5130615;27;20390;-46
2022/12/06 10:28:59;;;;;;;6.53;2.50;;;5.30;99.90;;;;;;5124948;27;20043;-45
2022/12/06 10:31:42;;;;;;;8.55;2.53;;;5.00;99.90;;;;;;5126474;27;20050;-47
2022/12/06 10:34:10;;;;;;;5.40;2.20;;;5.30;99.90;;;;;;5129019;27;20035;-47
2022/12/06 10:37:13;;;;;;;6.78;2.40;;;5.20;99.90;;;;;;5124997;27;20564;-46
2022/12/06 10:40:01;;;;;;;6.00;2.00;;;5.20;99.90;;;;;;5128752;27;20039;-49
2022/12/06 10:42:48;;;;;;;6.68;2.03;;;5.60;99.90;;;;;;5124934;27;20094;-49
2022/12/06 10:48:14;;;;;;;4.97;2.25;;;5.90;99.90;;;;;;5126897;27;20378;-48
2022/12/06 10:50:41;;;;;;;8.18;2.20;;;6.10;99.90;;;;;;5107905;27;20743;-48
2022/12/06 10:53:15;;;;;;;5.93;2.10;;;6.10;99.90;;;;;;5109866;27;20051;-49
2022/12/06 10:55:41;;;;;;;;;;;6.00;99.90;;;;;;5107301;27;20187;-48
2022/12/06 10:58:43;;;;;;;7.35;2.00;;;5.90;99.90;;;;;;5130021;27;20006;-47
2022/12/06 11:01:21;;;;;;;6.68;2.08;;;5.80;99.90;;;;;;5128111;27;20027;-47
2022/12/06 11:04:32;;;;;;;6.65;2.08;;;5.80;99.90;;;;;;5131539;27;20047;-47
2022/12/06 11:07:07;;;;;;;6.25;2.15;;;5.80;99.90;;;;;;5126720;27;20490;-50
2022/12/06 11:09:45;;;;;;;5.32;2.08;;;6.20;99.90;;;;;;5131711;27;20053;-51
2022/12/06 11:12:20;;;;;;;6.00;2.28;;;6.20;99.90;;;;;;5130090;27;20080;-50
2022/12/06 11:14:51;;;;;;;5.43;2.30;;;6.10;99.90;;;;;;5112370;27;20043;-51
2022/12/06 11:17:31;;;;;;;5.18;2.17;;;6.10;99.90;;;;;;5130312;27;20042;-49
2022/12/06 11:20:15;;;;;;;7.13;2.45;;;6.10;99.90;;;;;;5131385;27;20481;-49
2022/12/06 11:22:49;;;;;;;6.30;2.60;;;5.90;99.90;;;;;;5131419;27;20374;-47
2022/12/06 11:25:42;;;;;;;5.72;2.80;;;5.90;99.90;;;;;;5110193;27;20467;-48
2022/12/06 11:28:54;;;;;;;7.05;2.80;;;6.00;99.90;;;;;;5125157;27;20028;-48
2022/12/06 11:31:20;;;;;;;5.93;2.30;;;6.00;99.90;;;;;;5057287;27;20468;-46
2022/12/06 11:33:45;;;;;;;8.15;2.67;;;6.40;99.90;;;;;;5119443;27;20554;-50
2022/12/06 11:36:11;;;;;;;5.60;2.78;;;6.00;99.90;;;;;;5123586;27;20084;-46
2022/12/06 11:38:40;;;;;;;7.13;2.17;;;6.10;99.90;;;;;;5122049;27;20053;-48
2022/12/06 11:41:11;;;;;;;8.52;2.30;;;6.00;99.90;;;;;;5101811;27;20068;-48
2022/12/06 11:43:38;;;;;;;5.85;2.47;;;6.10;99.90;;;;;;5120215;27;20126;-46
2022/12/06 11:46:05;;;;;;;7.60;2.40;;;6.20;99.90;;;;;;5119715;27;20634;-46
2022/12/06 11:48:34;;;;;;;7.07;2.60;;;6.10;99.90;;;;;;5118701;27;20042;-45
2022/12/06 11:51:00;;;;;;;5.95;2.20;;;6.20;99.90;;;;;;5120108;27;20061;-47
2022/12/06 11:53:32;;;;;;;8.50;3.13;;;6.30;99.90;;;;;;5120046;27;20050;-45
2022/12/06 11:56:09;;;;;;;6.38;2.35;;;6.40;99.90;;;;;;5114798;27;20043;-48
2022/12/06 11:58:49;;;;;;;6.75;2.92;;;6.20;99.90;;;;;;5117231;27;20039;-50
2022/12/06 12:01:15;;;;;;;6.82;2.67;;;6.30;99.90;;;;;;5115706;27;20071;-47
2022/12/06 12:03:43;;;;;;;5.18;2.10;;;6.40;99.90;;;;;;5117594;27;20027;-47
2022/12/06 12:06:25;;;;;;;5.90;2.17;;;6.50;99.90;;;;;;5116340;27;20066;-48
2022/12/06 12:08:56;;;;;;;6.43;2.38;;;6.60;99.90;;;;;;5119502;27;20095;-44
2022/12/06 12:11:24;;;;;;;6.65;2.58;;;6.70;99.90;;;;;;5118623;27;20042;-47
2022/12/06 12:13:58;;;;;;;4.75;2.13;;;6.70;99.90;;;;;;5124450;27;20042;-48
2022/12/06 12:16:27;;;;;;;6.13;2.25;;;6.90;99.90;;;;;;5129366;27;20088;-48
2022/12/06 12:18:58;;;;;;;5.18;1.90;;;6.90;99.90;;;;;;5129433;27;20038;-50
2022/12/06 12:21:34;;;;;;;5.80;1.88;;;6.80;99.90;;;;;;5129425;27;20031;-50
2022/12/06 12:24:00;;;;;;;4.93;1.92;;;6.70;99.90;;;;;;5130454;27;20043;-50
2022/12/06 12:26:40;;;;;;;4.18;1.70;;;6.70;99.90;;;;;;5130260;27;20050;-51
2022/12/06 12:29:18;;;;;;;4.72;1.70;;;6.60;99.90;;;;;;5130061;28;20043;-49
2022/12/06 12:31:52;;;;;;;5.03;1.77;;;6.70;99.90;;;;;;5130580;28;20122;-50
2022/12/06 12:34:21;;;;;;;4.93;1.58;;;6.60;99.90;;;;;;5129724;28;20043;-49
2022/12/06 12:36:49;;;;;;;5.13;1.67;;;6.60;99.90;;;;;;5130248;28;20050;-46
2022/12/06 12:39:33;;;;;;;5.20;1.63;;;6.50;99.90;;;;;;5130274;28;20035;-50
2022/12/06 12:42:00;;;;;;;7.53;1.90;;;6.60;99.90;;;;;;5129864;28;20123;-50
2022/12/06 12:44:28;;;;;;;6.18;1.67;;;6.60;99.90;;;;;;5128963;28;20074;-48
2022/12/06 12:47:03;;;;;;;6.65;1.77;;;6.60;99.90;;;;;;5129014;27;20493;-48
2022/12/06 12:49:37;;;;;;;6.05;2.00;;;6.60;99.90;;;;;;5126516;27;20064;-50
2022/12/06 12:52:27;;;;;;;5.38;2.20;;;6.60;99.90;;;;;;5132495;27;20129;-47
2022/12/06 12:55:12;;;;;;;5.40;2.10;;;6.60;99.90;;;;;;5133246;27;20037;-46
2022/12/06 12:57:42;;;;;;;8.48;2.10;;;6.60;99.90;;;;;;5131943;27;20122;-46
2022/12/06 13:00:16;;;;;;;4.97;2.00;;;6.60;99.90;;;;;;5123078;27;20032;-48
2022/12/06 13:02:43;;;;;;;;;;;6.60;99.90;;;;;;5123859;27;20027;-47
2022/12/06 13:05:36;;;;;;;5.55;1.80;;;6.50;99.90;;;;;;5120734;27;19915;-48
2022/12/06 13:08:17;;;;;;;3.90;1.65;;;6.60;99.90;;;;;;5122964;27;20054;-49
2022/12/06 13:10:49;;;;;;;5.88;1.80;;;6.50;99.90;;;;;;5123098;27;20043;-49
2022/12/06 13:13:41;;;;;;;4.13;1.65;;;6.50;99.90;;;;;;5121477;27;20032;-48
2022/12/06 13:16:19;;;;;;;3.53;1.50;;;6.50;99.90;;;;;;5121811;27;20051;-48
2022/12/06 13:18:49;;;;;;;3.78;1.52;;;6.50;99.90;;;;;;5121597;27;20084;-47
2022/12/06 13:21:24;;;;;;;3.63;1.40;;;6.50;99.90;;;;;;5120759;27;20517;-48
2022/12/06 13:24:01;;;;;;;3.45;1.23;;;6.60;99.90;;;;;;5123408;27;20027;-48
2022/12/06 13:26:32;;;;;;;4.18;1.10;;;6.80;99.90;;;;;;5103904;27;20035;-49
2022/12/06 13:29:26;;;;;;;3.33;1.10;;;6.50;99.90;;;;;;5122233;27;20031;-49
2022/12/06 13:31:55;;;;;;;4.30;1.33;;;6.50;99.90;;;;;;5070040;27;20393;-46
2022/12/06 13:34:27;;;;;;;6.18;1.30;;;6.60;99.90;;;;;;5119805;27;20035;-48
2022/12/06 13:36:52;;;;;;;3.38;1.30;;;6.60;99.90;;;;;;5122878;27;20039;-48
2022/12/06 13:39:31;;;;;;;4.65;1.10;;;6.70;99.90;;;;;;5121687;27;20355;-48
2022/12/06 13:42:17;;;;;;;3.95;1.40;;;6.60;99.90;;;;;;5122683;27;20049;-48
2022/12/06 13:44:49;;;;;;;6.13;1.30;;;6.60;99.90;;;;;;5121492;27;20507;-50